Laguepe — 9HAI9 — position and weather

sailwx.info

Track history (hours):
 
Tides and Currents Weather Stations Pressure Air Temp Water Temp Dewpoint Dewpoint Depression Visibility Wind Speed Wind Dir Waves Ship Positions

Laguepe

Last reported at 2014-Oct-25 08:26 UTC. Time now 2014-Oct-26 01:16 UTC.
Position N 43°23' E 004°49'.

Length 81 m; draft 3.2 m.

Type: Cargo ship. MMSI: 256681000.

Date/timePositionNaut miles runAvg speedWind from/ knotsBaromVisibWave heightAir tempDewpointWater temp
2014-Oct-25 08:26N 43°23' E 004°49'1 0.8
2014-Oct-25 07:33N 43°23' E 004°49'5 4.9
2014-Oct-25 06:33N 43°23' E 004°56'4 4.2
2014-Oct-25 05:33N 43°19' E 004°57'7 7.1
2014-Oct-25 04:33N 43°18' E 004°47'47 6.7
2014-Oct-24 21:33N 43°04' E 003°46'9 7.8
2014-Oct-24 20:23N 42°56' E 003°42'8 7.4
2014-Oct-24 19:22N 42°48' E 003°39'6 7.1
2014-Oct-24 18:31N 42°43' E 003°36'7 7.1
2014-Oct-24 17:28N 42°36' E 003°33'8 7.7
2014-Oct-24 16:29N 42°28' E 003°29'7 7.4
2014-Oct-24 15:30N 42°21' E 003°26'9 7.3
2014-Oct-24 14:19N 42°13' E 003°23'7 7.3
2014-Oct-24 13:21N 42°06' E 003°22'6 7.4
2014-Oct-24 12:33N 42°00' E 003°20'9 7.5
2014-Oct-24 11:18N 41°51' E 003°18'5 6.6
2014-Oct-24 10:29N 41°47' E 003°13'8 7.2
2014-Oct-24 09:20N 41°43' E 003°04'9 7.8
2014-Oct-24 08:09N 41°37' E 002°54'22 0.5
2014-Oct-22 15:27N 41°25' E 002°29'14 7.1
2014-Oct-22 13:27N 41°33' E 002°44'6 6.1
2014-Oct-22 12:33N 41°37' E 002°50'9 6.8
2014-Oct-22 11:10N 41°41' E 003°01'5 7.0
2014-Oct-22 10:30N 41°44' E 003°06'7 7.8
2014-Oct-22 09:33N 41°48' E 003°15'8 7.2
2014-Oct-22 08:25N 41°55' E 003°19'6 7.3
2014-Oct-22 07:33N 42°01' E 003°21'9 8.5
2014-Oct-22 06:26N 42°11' E 003°22'11 8.2
2014-Oct-22 05:08N 42°21' E 003°21'46 6.9
2014-Oct-21 22:25N 43°08' E 003°27'10 7.7
2014-Oct-21 21:04N 43°14' E 003°39'7 8.0
2014-Oct-21 20:11N 43°18' E 003°46'7 8.0
2014-Oct-21 19:19N 43°23' E 003°54'7 7.2
2014-Oct-21 18:23N 43°22' E 004°03'6 7.3
2014-Oct-21 17:34N 43°21' E 004°11'9 6.3
2014-Oct-21 16:07N 43°19' E 004°23'6 6.2
2014-Oct-21 15:11N 43°18' E 004°31'5 6.0
2014-Oct-21 14:26N 43°17' E 004°37'5 6.3
2014-Oct-21 13:33N 43°18' E 004°45'6 6.3
2014-Oct-21 12:33N 43°18' E 004°53'5 5.2
2014-Oct-21 11:33N 43°24' E 004°54'4 4.2
2014-Oct-21 10:33N 43°23' E 004°49'  
2014-Oct-18 10:14N 43°38' E 004°38'6 6.2
2014-Oct-18 09:17N 43°33' E 004°43'6 7.2
2014-Oct-18 08:29N 43°28' E 004°45'5 5.7
2014-Oct-18 07:33N 43°23' E 004°49'3 3.2
2014-Oct-18 06:33N 43°24' E 004°53'6 5.9
2014-Oct-18 05:33N 43°20' E 004°59'6 5.7
2014-Oct-18 04:34N 43°17' E 005°06'6 6.0
2014-Oct-18 03:33N 43°13' E 005°13'23 5.6
2014-Oct-17 23:31N 43°03' E 005°41'5 5.1
2014-Oct-17 22:33N 43°02' E 005°47'5 5.5
2014-Oct-17 21:33N 43°00' E 005°54'5 5.4
2014-Oct-17 20:33N 42°59' E 006°02'6 5.6
2014-Oct-17 19:32N 42°58' E 006°09'7 5.5
2014-Oct-17 18:13N 42°57' E 006°19'4 5.1
2014-Oct-17 17:25N 42°57' E 006°24'6 5.5
2014-Oct-17 16:17N 43°00' E 006°32'4 5.4
2014-Oct-17 15:33N 43°02' E 006°37'5 5.5
2014-Oct-17 14:33N 43°05' E 006°43'6 5.8
2014-Oct-17 13:33N 43°08' E 006°49'6 6.1
2014-Oct-17 12:34N 43°12' E 006°56'6 6.3
2014-Oct-17 11:33N 43°16' E 007°03'13 6.3
2014-Oct-17 09:33N 43°23' E 007°18'4 4.1
2014-Oct-17 08:28N 43°25' E 007°23'5 4.3
2014-Oct-17 07:23N 43°28' E 007°28'4 4.4
2014-Oct-17 06:30N 43°30' E 007°33'5 4.4
2014-Oct-17 05:23N 43°33' E 007°38'57 4.3
2014-Oct-16 16:16N 44°15' E 008°31'4 0.2
2014-Oct-16 00:29N 44°19' E 008°30'0 0.0
2014-Oct-15 23:29N 44°19' E 008°30'6 0.8
2014-Oct-15 16:18N 44°13' E 008°31'6 7.5
2014-Oct-15 15:33N 44°08' E 008°28'8 7.5
2014-Oct-15 14:31N 44°01' E 008°23'  
Track history (hours):
 
Tides and Currents Weather Stations Pressure Air Temp Water Temp Dewpoint Dewpoint Depression Visibility Wind Speed Wind Dir Waves Ship Positions

Laguepe

Last reported at 2014-Oct-25 08:26 UTC. Time now 2014-Oct-26 01:16 UTC.
Position N 43°23' E 004°49'.

Length 81 m; draft 3.2 m.

Type: Cargo ship. MMSI: 256681000.

Date/timePositionNaut miles runAvg speedWind from/ knotsBaromVisibWave heightAir tempDewpointWater temp
2014-Oct-25 08:26N 43°23' E 004°49'1 0.8
2014-Oct-25 07:33N 43°23' E 004°49'5 4.9
2014-Oct-25 06:33N 43°23' E 004°56'4 4.2
2014-Oct-25 05:33N 43°19' E 004°57'7 7.1
2014-Oct-25 04:33N 43°18' E 004°47'47 6.7
2014-Oct-24 21:33N 43°04' E 003°46'9 7.8
2014-Oct-24 20:23N 42°56' E 003°42'8 7.4
2014-Oct-24 19:22N 42°48' E 003°39'6 7.1
2014-Oct-24 18:31N 42°43' E 003°36'7 7.1
2014-Oct-24 17:28N 42°36' E 003°33'8 7.7
2014-Oct-24 16:29N 42°28' E 003°29'7 7.4
2014-Oct-24 15:30N 42°21' E 003°26'9 7.3
2014-Oct-24 14:19N 42°13' E 003°23'7 7.3
2014-Oct-24 13:21N 42°06' E 003°22'6 7.4
2014-Oct-24 12:33N 42°00' E 003°20'9 7.5
2014-Oct-24 11:18N 41°51' E 003°18'5 6.6
2014-Oct-24 10:29N 41°47' E 003°13'8 7.2
2014-Oct-24 09:20N 41°43' E 003°04'9 7.8
2014-Oct-24 08:09N 41°37' E 002°54'22 0.5
2014-Oct-22 15:27N 41°25' E 002°29'14 7.1
2014-Oct-22 13:27N 41°33' E 002°44'6 6.1
2014-Oct-22 12:33N 41°37' E 002°50'9 6.8
2014-Oct-22 11:10N 41°41' E 003°01'5 7.0
2014-Oct-22 10:30N 41°44' E 003°06'7 7.8
2014-Oct-22 09:33N 41°48' E 003°15'8 7.2
2014-Oct-22 08:25N 41°55' E 003°19'6 7.3
2014-Oct-22 07:33N 42°01' E 003°21'9 8.5
2014-Oct-22 06:26N 42°11' E 003°22'11 8.2
2014-Oct-22 05:08N 42°21' E 003°21'46 6.9
2014-Oct-21 22:25N 43°08' E 003°27'10 7.7
2014-Oct-21 21:04N 43°14' E 003°39'7 8.0
2014-Oct-21 20:11N 43°18' E 003°46'7 8.0
2014-Oct-21 19:19N 43°23' E 003°54'7 7.2
2014-Oct-21 18:23N 43°22' E 004°03'6 7.3
2014-Oct-21 17:34N 43°21' E 004°11'9 6.3
2014-Oct-21 16:07N 43°19' E 004°23'6 6.2
2014-Oct-21 15:11N 43°18' E 004°31'5 6.0
2014-Oct-21 14:26N 43°17' E 004°37'5 6.3
2014-Oct-21 13:33N 43°18' E 004°45'6 6.3
2014-Oct-21 12:33N 43°18' E 004°53'5 5.2
2014-Oct-21 11:33N 43°24' E 004°54'4 4.2
2014-Oct-21 10:33N 43°23' E 004°49'  
2014-Oct-18 10:14N 43°38' E 004°38'6 6.2
2014-Oct-18 09:17N 43°33' E 004°43'6 7.2
2014-Oct-18 08:29N 43°28' E 004°45'5 5.7
2014-Oct-18 07:33N 43°23' E 004°49'3 3.2
2014-Oct-18 06:33N 43°24' E 004°53'6 5.9
2014-Oct-18 05:33N 43°20' E 004°59'6 5.7
2014-Oct-18 04:34N 43°17' E 005°06'6 6.0
2014-Oct-18 03:33N 43°13' E 005°13'23 5.6
2014-Oct-17 23:31N 43°03' E 005°41'5 5.1
2014-Oct-17 22:33N 43°02' E 005°47'5 5.5
2014-Oct-17 21:33N 43°00' E 005°54'5 5.4
2014-Oct-17 20:33N 42°59' E 006°02'6 5.6
2014-Oct-17 19:32N 42°58' E 006°09'7 5.5
2014-Oct-17 18:13N 42°57' E 006°19'4 5.1
2014-Oct-17 17:25N 42°57' E 006°24'6 5.5
2014-Oct-17 16:17N 43°00' E 006°32'4 5.4
2014-Oct-17 15:33N 43°02' E 006°37'5 5.5
2014-Oct-17 14:33N 43°05' E 006°43'6 5.8
2014-Oct-17 13:33N 43°08' E 006°49'6 6.1
2014-Oct-17 12:34N 43°12' E 006°56'6 6.3
2014-Oct-17 11:33N 43°16' E 007°03'13 6.3
2014-Oct-17 09:33N 43°23' E 007°18'4 4.1
2014-Oct-17 08:28N 43°25' E 007°23'5 4.3
2014-Oct-17 07:23N 43°28' E 007°28'4 4.4
2014-Oct-17 06:30N 43°30' E 007°33'5 4.4
2014-Oct-17 05:23N 43°33' E 007°38'57 4.3
2014-Oct-16 16:16N 44°15' E 008°31'4 0.2
2014-Oct-16 00:29N 44°19' E 008°30'0 0.0
2014-Oct-15 23:29N 44°19' E 008°30'6 0.8
2014-Oct-15 16:18N 44°13' E 008°31'6 7.5
2014-Oct-15 15:33N 44°08' E 008°28'8 7.5
2014-Oct-15 14:31N 44°01' E 008°23'  

Dump ship's entire track history